createdAt,value
2018-02-06T00:01:06.887Z,18.60
2018-02-06T00:03:34.345Z,20.50
2018-02-06T00:06:01.796Z,18.00
2018-02-06T00:08:29.262Z,19.23
2018-02-06T00:10:56.721Z,18.97
2018-02-06T00:13:24.163Z,20.30
2018-02-06T00:15:51.627Z,20.77
2018-02-06T00:18:19.079Z,18.83
2018-02-06T00:20:46.544Z,19.40
2018-02-06T00:23:13.991Z,19.67
2018-02-06T00:25:41.442Z,19.37
2018-02-06T00:28:08.903Z,18.60
2018-02-06T00:30:36.355Z,18.47
2018-02-06T00:33:03.802Z,19.00
2018-02-06T00:35:31.258Z,18.00
2018-02-06T00:37:58.711Z,18.30
2018-02-06T00:40:26.168Z,19.17
2018-02-06T00:42:53.621Z,18.77
2018-02-06T00:45:21.084Z,20.17
2018-02-06T00:47:48.534Z,19.57
2018-02-06T00:50:15.983Z,19.47
2018-02-06T00:52:43.438Z,19.00
2018-02-06T00:55:10.901Z,20.20
2018-02-06T00:57:38.363Z,19.00
2018-02-06T01:00:05.827Z,21.10
2018-02-06T01:02:33.281Z,18.83
2018-02-06T01:05:00.754Z,19.27
2018-02-06T01:07:28.198Z,18.40
2018-02-06T01:09:55.654Z,19.83
2018-02-06T01:12:23.106Z,19.53
2018-02-06T01:14:50.742Z,19.30
2018-02-06T01:17:18.190Z,20.60
2018-02-06T01:19:45.648Z,20.90
2018-02-06T01:22:13.102Z,19.13
2018-02-06T01:24:40.562Z,20.33
2018-02-06T01:27:08.014Z,21.20
2018-02-06T01:29:35.476Z,19.90
2018-02-06T01:32:02.927Z,19.10
2018-02-06T01:34:30.382Z,20.90
2018-02-06T01:36:57.839Z,20.27
2018-02-06T01:39:25.301Z,21.37
2018-02-06T01:41:52.755Z,21.27
2018-02-06T01:44:20.211Z,20.20
2018-02-06T01:46:47.662Z,20.40
2018-02-06T01:49:15.119Z,20.00
2018-02-06T01:51:42.587Z,20.57
2018-02-06T01:54:10.038Z,19.67
2018-02-06T01:56:37.494Z,20.40
2018-02-06T01:59:04.943Z,20.33
2018-02-06T02:01:32.403Z,21.73
2018-02-06T02:04:00.199Z,20.63
2018-02-06T02:06:27.655Z,19.57
2018-02-06T02:08:55.103Z,19.40
2018-02-06T02:11:22.567Z,20.83
2018-02-06T02:13:50.023Z,21.33
2018-02-06T02:16:17.474Z,22.60
2018-02-06T02:18:44.937Z,22.10
2018-02-06T02:21:12.387Z,20.80
2018-02-06T02:23:39.841Z,21.50
2018-02-06T02:26:07.299Z,22.10
2018-02-06T02:28:34.763Z,22.73
2018-02-06T02:31:02.207Z,21.57
2018-02-06T02:33:29.661Z,20.77
2018-02-06T02:35:57.115Z,22.20
2018-02-06T02:38:24.570Z,23.40
2018-02-06T02:40:52.027Z,22.30
2018-02-06T04:38:53.869Z,23.27
2018-02-06T04:41:22.385Z,23.97
2018-02-06T04:43:49.852Z,23.20
2018-02-06T04:46:17.311Z,23.83
2018-02-06T04:48:44.772Z,24.17
2018-02-06T04:51:12.230Z,22.70
2018-02-06T04:53:39.692Z,24.73
2018-02-06T04:56:07.144Z,21.80
2018-02-06T04:58:34.603Z,23.60
2018-02-06T05:01:02.059Z,24.30
2018-02-06T05:03:29.510Z,22.77
2018-02-06T05:05:56.971Z,24.27
2018-02-06T05:08:24.447Z,23.90
2018-02-06T05:10:51.891Z,24.07
2018-02-06T05:13:19.347Z,24.73
2018-02-06T05:15:46.798Z,24.67
2018-02-06T05:18:14.247Z,24.10
2018-02-06T05:20:41.706Z,24.53
2018-02-06T05:23:09.163Z,24.43
2018-02-06T05:25:36.615Z,24.23
2018-02-06T05:28:04.071Z,24.63
2018-02-06T05:30:31.539Z,25.00
2018-02-06T05:32:58.986Z,25.37
2018-02-06T05:35:26.437Z,26.43
2018-02-06T05:37:53.895Z,24.53
2018-02-06T05:40:21.350Z,24.60
2018-02-06T05:42:48.805Z,25.50
2018-02-06T05:45:16.278Z,23.83
2018-02-06T05:47:43.730Z,25.73
2018-02-06T05:50:11.186Z,26.20
2018-02-06T05:52:38.630Z,24.87
2018-02-06T05:55:06.091Z,23.80
2018-02-06T05:57:33.543Z,27.47
2018-02-06T06:00:01.003Z,24.60
2018-02-06T06:02:28.456Z,24.33
2018-02-06T06:04:55.916Z,24.37
2018-02-06T06:07:23.380Z,25.17
2018-02-06T06:09:50.822Z,25.30
2018-02-06T06:12:18.277Z,26.33
2018-02-06T06:14:46.695Z,26.33
2018-02-06T06:17:14.151Z,25.57
2018-02-06T06:19:41.598Z,24.53
2018-02-06T06:22:09.828Z,26.27
2018-02-06T06:24:37.278Z,27.47
2018-02-06T06:27:04.735Z,26.13
2018-02-06T06:29:32.190Z,26.03
2018-02-06T06:31:59.657Z,25.00
2018-02-06T06:34:27.115Z,27.30
2018-02-06T06:36:54.582Z,25.90
2018-02-06T06:39:22.074Z,26.20
2018-02-06T06:41:49.514Z,25.97
2018-02-06T06:44:18.369Z,26.23
2018-02-06T06:46:45.888Z,26.20
2018-02-06T06:49:13.341Z,28.27
2018-02-06T06:51:40.807Z,30.77
2018-02-06T06:54:08.263Z,27.77
2018-02-06T06:56:35.727Z,27.30
2018-02-06T06:59:03.183Z,26.50
2018-02-06T07:01:30.647Z,28.90
2018-02-06T07:03:58.103Z,26.87
2018-02-06T07:06:25.571Z,26.80
2018-02-06T07:08:53.026Z,25.97
2018-02-06T07:11:20.488Z,31.53
2018-02-06T07:13:49.060Z,27.50
2018-02-06T07:16:16.520Z,30.67
2018-02-06T07:18:43.974Z,44.93
2018-02-06T07:21:11.442Z,41.40
2018-02-06T07:23:38.906Z,50.10
2018-02-06T07:26:06.359Z,49.23
2018-02-06T07:28:33.818Z,35.70
2018-02-06T07:31:01.266Z,41.90
2018-02-06T07:33:28.726Z,48.37
2018-02-06T07:35:56.174Z,39.63
2018-02-06T07:38:23.631Z,32.67
2018-02-06T07:40:51.091Z,33.07
2018-02-06T07:43:18.558Z,32.87
2018-02-06T07:45:46.003Z,32.43
2018-02-06T07:48:13.481Z,30.57
2018-02-06T07:50:40.938Z,32.83
2018-02-06T07:53:08.388Z,32.70
2018-02-06T07:55:35.837Z,30.90
2018-02-06T07:58:03.291Z,29.77
2018-02-06T08:00:30.751Z,31.33
2018-02-06T08:02:58.219Z,27.77
2018-02-06T08:05:25.676Z,32.87
2018-02-06T08:07:53.131Z,32.90
2018-02-06T08:10:21.355Z,30.07
2018-02-06T08:12:48.818Z,26.07
2018-02-06T08:15:16.273Z,28.50
2018-02-06T08:17:43.756Z,28.33
2018-02-06T08:20:11.178Z,27.17
2018-02-06T08:22:38.634Z,26.73
2018-02-06T08:25:06.094Z,27.80
2018-02-06T08:27:33.555Z,26.40
2018-02-06T08:30:01.015Z,26.73
2018-02-06T08:32:28.467Z,27.30
2018-02-06T08:34:55.926Z,26.77
2018-02-06T08:37:23.387Z,25.07
2018-02-06T08:39:50.847Z,26.47
2018-02-06T08:42:18.362Z,26.77
2018-02-06T08:44:45.783Z,25.80
2018-02-06T08:47:13.226Z,28.33
2018-02-06T08:49:40.690Z,28.83
2018-02-06T08:52:08.146Z,26.47
2018-02-06T08:54:35.607Z,26.77
2018-02-06T08:57:03.056Z,28.30
2018-02-06T08:59:30.519Z,27.67
2018-02-06T09:01:57.975Z,29.33
2018-02-06T09:04:25.448Z,28.07
2018-02-06T09:06:52.887Z,25.50
2018-02-06T09:09:20.339Z,30.13
2018-02-06T09:11:47.794Z,28.60
2018-02-06T09:14:15.250Z,28.93
2018-02-06T09:16:42.707Z,28.27
2018-02-06T09:19:10.163Z,28.60
2018-02-06T09:21:37.619Z,28.57
2018-02-06T09:24:05.098Z,28.00
2018-02-06T09:26:32.534Z,28.00
2018-02-06T09:28:59.990Z,28.70
2018-02-06T09:31:27.444Z,29.43
2018-02-06T09:33:54.900Z,31.37
2018-02-06T09:36:22.343Z,28.03
2018-02-06T09:38:49.811Z,27.87
2018-02-06T09:41:17.259Z,26.30
2018-02-06T09:43:44.711Z,30.00
2018-02-06T09:46:12.167Z,30.90
2018-02-06T09:48:39.626Z,28.90
2018-02-06T09:51:07.078Z,28.97
2018-02-06T09:53:34.523Z,29.33
2018-02-06T09:56:01.982Z,30.27
2018-02-06T09:58:29.426Z,30.23
2018-02-06T10:00:56.878Z,28.30
2018-02-06T10:03:24.335Z,29.60
2018-02-06T10:05:51.795Z,30.23
2018-02-06T10:08:19.251Z,30.73
2018-02-06T10:10:46.706Z,31.20
2018-02-06T10:13:14.160Z,30.80
2018-02-06T10:15:41.615Z,31.20
2018-02-06T10:18:09.071Z,30.80
2018-02-06T10:20:36.528Z,31.83
2018-02-06T10:23:03.988Z,33.00
2018-02-06T10:25:31.440Z,28.67
2018-02-06T10:27:58.896Z,31.50
2018-02-06T10:30:26.350Z,29.70
2018-02-06T10:32:53.790Z,30.10
2018-02-06T10:35:21.250Z,30.90
2018-02-06T10:37:48.701Z,30.83
2018-02-06T10:40:16.939Z,30.37
2018-02-06T10:42:44.392Z,32.23
2018-02-06T10:45:11.851Z,29.83
2018-02-06T10:47:39.313Z,30.60
2018-02-06T10:50:06.755Z,30.03
2018-02-06T10:52:34.215Z,32.57
2018-02-06T10:55:01.671Z,29.53
2018-02-06T10:57:29.123Z,29.33
2018-02-06T10:59:56.649Z,27.70
2018-02-06T11:02:24.100Z,28.33
2018-02-06T11:04:51.563Z,29.80
2018-02-06T11:07:19.029Z,28.80
2018-02-06T11:09:46.478Z,29.30
2018-02-06T11:12:13.930Z,28.20
2018-02-06T11:14:41.385Z,29.50
2018-02-06T11:17:08.920Z,29.63
2018-02-06T11:19:37.130Z,28.43
2018-02-06T11:22:05.394Z,31.50
2018-02-06T11:24:32.872Z,27.23
2018-02-06T11:27:00.326Z,28.90
2018-02-06T11:29:27.840Z,28.50
2018-02-06T11:31:56.050Z,31.30
2018-02-06T11:34:23.535Z,28.03
2018-02-06T11:36:51.068Z,29.30
2018-02-06T11:39:18.548Z,29.27
2018-02-06T11:41:46.015Z,29.90
2018-02-06T11:44:13.462Z,29.37
2018-02-06T11:46:40.915Z,29.00
2018-02-06T11:49:08.370Z,30.60
2018-02-06T11:51:35.827Z,30.70
2018-02-06T11:54:03.311Z,31.00
2018-02-06T11:56:31.543Z,28.47
2018-02-06T11:58:59.087Z,28.57
2018-02-06T12:01:26.642Z,29.37
2018-02-06T12:03:54.042Z,36.27
2018-02-06T12:06:21.502Z,27.60
2018-02-06T12:08:48.955Z,31.20
2018-02-06T12:11:16.398Z,31.30
2018-02-06T12:13:43.854Z,35.20
2018-02-06T12:16:11.303Z,28.53
2018-02-06T12:18:38.750Z,31.00
2018-02-06T12:21:06.206Z,30.50
2018-02-06T12:23:33.660Z,33.93
2018-02-06T12:26:01.103Z,33.03
2018-02-06T12:28:28.554Z,35.50
2018-02-06T12:30:56.013Z,29.93
2018-02-06T12:33:23.471Z,29.87
2018-02-06T12:35:50.907Z,31.67
2018-02-06T12:38:18.369Z,29.20
2018-02-06T12:40:45.809Z,31.77
2018-02-06T12:43:13.262Z,28.10
2018-02-06T12:45:41.480Z,29.13
2018-02-06T12:48:08.930Z,34.63
2018-02-06T12:50:36.409Z,29.23
2018-02-06T12:53:03.866Z,29.77
2018-02-06T12:55:31.314Z,29.50
2018-02-06T12:57:58.782Z,30.30
2018-02-06T13:00:26.231Z,30.83
2018-02-06T13:02:54.442Z,30.80
2018-02-06T13:05:23.470Z,28.33
2018-02-06T13:07:50.924Z,26.87
2018-02-06T13:10:18.363Z,27.90
2018-02-06T13:12:45.815Z,28.37
2018-02-06T13:15:13.262Z,27.40
2018-02-06T13:17:41.473Z,27.93
2018-02-06T13:20:08.934Z,26.50
2018-02-06T13:22:36.387Z,26.60
2018-02-06T13:25:03.846Z,28.70
2018-02-06T13:27:31.294Z,28.00
2018-02-06T13:29:58.751Z,27.23
2018-02-06T13:32:26.202Z,29.50
2018-02-06T13:34:53.654Z,28.50
2018-02-06T13:37:21.112Z,28.50
2018-02-06T13:39:48.567Z,28.30
2018-02-06T13:42:16.023Z,28.40
2018-02-06T13:44:43.478Z,27.50
2018-02-06T13:47:10.931Z,28.77
2018-02-06T13:49:38.369Z,27.60
2018-02-06T13:52:05.810Z,28.67
2018-02-06T13:54:34.027Z,29.43
2018-02-06T13:57:01.481Z,28.10
2018-02-06T13:59:28.951Z,29.40
2018-02-06T14:01:56.396Z,28.97
2018-02-06T14:04:23.851Z,29.77
2018-02-06T14:06:51.313Z,28.50
2018-02-06T14:09:18.770Z,28.60
2018-02-06T14:11:46.226Z,28.00
2018-02-06T14:14:13.698Z,27.77
2018-02-06T14:16:41.151Z,29.57
2018-02-06T14:19:08.608Z,26.57
2018-02-06T14:21:36.063Z,29.57
2018-02-06T14:24:03.507Z,29.70
2018-02-06T14:26:30.963Z,30.13
2018-02-06T14:28:58.406Z,28.00
2018-02-06T14:31:25.863Z,30.87
2018-02-06T14:33:53.315Z,29.80
2018-02-06T14:36:20.774Z,27.67
2018-02-06T14:38:48.223Z,27.40
2018-02-06T14:41:15.669Z,28.30
2018-02-06T14:43:43.114Z,28.40
2018-02-06T14:46:11.343Z,27.90
2018-02-06T14:48:38.786Z,28.73
2018-02-06T14:51:06.252Z,30.97
2018-02-06T14:53:33.711Z,27.80
2018-02-06T14:56:01.162Z,28.47
2018-02-06T14:58:28.618Z,26.43
2018-02-06T15:00:56.066Z,28.80
2018-02-06T15:03:23.512Z,26.80
2018-02-06T15:05:50.983Z,27.70
2018-02-06T15:08:18.471Z,27.53
2018-02-06T15:10:45.879Z,28.40
2018-02-06T15:13:13.339Z,27.33
2018-02-06T15:15:40.786Z,27.30
2018-02-06T15:18:08.250Z,27.60
2018-02-06T15:20:35.715Z,27.97
2018-02-06T15:23:03.170Z,27.87
2018-02-06T15:25:30.618Z,29.37
2018-02-06T15:27:58.075Z,29.07
2018-02-06T15:30:25.527Z,27.70
2018-02-06T15:32:52.982Z,28.83
2018-02-06T15:35:20.437Z,28.10
2018-02-06T15:37:48.659Z,29.37
2018-02-06T15:40:16.106Z,28.47
2018-02-06T15:42:43.559Z,28.17
2018-02-06T15:45:11.020Z,29.07
2018-02-06T15:47:38.470Z,26.07
2018-02-06T15:50:05.937Z,27.53
2018-02-06T15:52:33.779Z,29.17
2018-02-06T15:55:02.047Z,27.50
2018-02-06T15:57:29.504Z,28.53
2018-02-06T15:59:56.946Z,28.73
2018-02-06T16:02:24.402Z,29.03
2018-02-06T16:04:51.919Z,27.10
2018-02-06T16:07:19.370Z,27.57
2018-02-06T16:09:46.810Z,30.17
2018-02-06T16:12:14.266Z,28.90
2018-02-06T16:14:41.721Z,29.40
2018-02-06T16:17:09.182Z,28.80
2018-02-06T16:19:36.636Z,29.97
2018-02-06T16:22:04.092Z,27.40
2018-02-06T16:24:31.548Z,28.10
2018-02-06T16:26:59.008Z,28.40
2018-02-06T16:29:26.458Z,31.63
2018-02-06T16:31:53.914Z,31.23
2018-02-06T16:34:21.359Z,28.77
2018-02-06T16:36:48.834Z,29.57
2018-02-06T16:39:16.282Z,32.10
2018-02-06T16:41:43.744Z,32.67
2018-02-06T16:44:11.199Z,31.03
2018-02-06T16:46:38.656Z,31.93
2018-02-06T16:49:06.131Z,31.37
2018-02-06T16:51:33.575Z,31.67
2018-02-06T16:54:01.039Z,30.70
2018-02-06T16:56:28.486Z,29.50
2018-02-06T16:58:55.963Z,29.10
2018-02-06T17:01:23.414Z,27.97
2018-02-06T17:03:50.872Z,31.10
2018-02-06T17:06:18.322Z,29.90
2018-02-06T17:08:45.788Z,33.73
2018-02-06T17:11:13.241Z,31.30
2018-02-06T17:13:40.692Z,28.60
2018-02-06T17:16:08.139Z,30.47
2018-02-06T17:18:35.647Z,32.30
2018-02-06T17:21:03.063Z,32.10
2018-02-06T17:23:30.524Z,31.90
2018-02-06T17:25:58.742Z,31.50
2018-02-06T17:28:26.198Z,31.90
2018-02-06T17:30:53.654Z,30.50
2018-02-06T17:33:21.135Z,32.43
2018-02-06T17:35:49.038Z,31.00
2018-02-06T17:38:17.255Z,32.30
2018-02-06T17:40:44.708Z,29.97
2018-02-06T17:43:12.172Z,31.37
2018-02-06T17:45:39.628Z,32.00
2018-02-06T17:48:07.080Z,31.77
2018-02-06T17:50:34.540Z,35.37
2018-02-06T17:53:01.987Z,36.40
2018-02-06T17:55:29.464Z,33.90
2018-02-06T17:57:56.904Z,32.80
2018-02-06T18:00:24.363Z,31.53
2018-02-06T18:02:51.812Z,33.10
2018-02-06T18:05:19.280Z,34.83
2018-02-06T18:07:46.728Z,34.90
2018-02-06T18:10:14.230Z,43.97
2018-02-06T18:12:41.677Z,51.37
2018-02-06T18:15:09.135Z,46.10
2018-02-06T18:17:36.588Z,34.03
2018-02-06T18:20:04.051Z,34.60
2018-02-06T18:22:31.498Z,33.77
2018-02-06T18:24:58.968Z,35.43
2018-02-06T18:27:26.411Z,32.83
2018-02-06T18:29:53.867Z,30.87
2018-02-06T18:32:21.323Z,32.13
2018-02-06T18:34:48.783Z,35.30
2018-02-06T18:37:16.269Z,35.00
2018-02-06T18:39:43.684Z,39.53
2018-02-06T18:42:11.146Z,39.63
2018-02-06T18:44:38.592Z,35.80
2018-02-06T18:47:06.044Z,35.60
2018-02-06T18:49:33.498Z,35.00
2018-02-06T18:52:00.951Z,34.40
2018-02-06T18:54:28.417Z,34.70
2018-02-06T18:56:55.871Z,35.00
2018-02-06T18:59:23.314Z,33.23
2018-02-06T19:01:50.778Z,35.30
2018-02-06T19:04:18.231Z,36.20
2018-02-06T19:06:45.738Z,32.47
2018-02-06T19:09:13.947Z,32.53
2018-02-06T19:11:41.407Z,35.00
2018-02-06T19:14:08.871Z,35.20
2018-02-06T19:16:36.327Z,36.03
2018-02-06T19:19:03.783Z,34.40
2018-02-06T19:21:31.242Z,36.27
2018-02-06T19:23:58.707Z,34.40
2018-02-06T19:26:26.339Z,32.80
2018-02-06T19:28:53.772Z,33.63
2018-02-06T19:31:21.226Z,32.70
2018-02-06T19:33:48.726Z,34.23
2018-02-06T19:36:16.172Z,36.10
2018-02-06T19:38:43.627Z,42.50
2018-02-06T19:41:11.091Z,43.17
2018-02-06T19:43:38.546Z,44.57
2018-02-06T19:46:06.006Z,42.57
2018-02-06T19:48:33.463Z,42.90
2018-02-06T19:51:00.927Z,41.33
2018-02-06T19:53:28.380Z,41.47
2018-02-06T19:55:55.827Z,36.90
2018-02-06T19:58:23.275Z,37.67
2018-02-06T20:00:50.793Z,37.10
2018-02-06T20:03:19.002Z,38.00
2018-02-06T20:05:46.475Z,38.03
2018-02-06T20:08:13.935Z,37.73
2018-02-06T20:10:41.395Z,40.00
2018-02-06T20:13:08.854Z,42.70
2018-02-06T20:15:36.307Z,43.60
2018-02-06T20:18:03.782Z,45.20
2018-02-06T20:20:31.235Z,41.40
2018-02-06T20:22:58.733Z,39.50
2018-02-06T20:25:26.226Z,37.33
2018-02-06T20:27:53.679Z,38.53
2018-02-06T20:30:21.124Z,39.87
2018-02-06T20:32:48.646Z,37.53
2018-02-06T20:35:16.883Z,38.03
2018-02-06T20:37:44.391Z,40.90
2018-02-06T20:40:12.637Z,41.53
2018-02-06T20:42:40.090Z,38.60
2018-02-06T20:45:07.827Z,40.70
2018-02-06T20:47:35.311Z,38.30
2018-02-06T20:50:02.823Z,38.87
2018-02-06T20:52:30.276Z,38.63
2018-02-06T20:54:57.735Z,40.73
2018-02-06T20:57:25.236Z,42.20
2018-02-06T20:59:52.700Z,41.10
2018-02-06T21:02:20.921Z,40.07
2018-02-06T21:04:50.506Z,41.17
2018-02-06T21:07:17.996Z,36.73
2018-02-06T21:09:45.440Z,36.80
2018-02-06T21:12:14.258Z,37.17
2018-02-06T21:14:42.745Z,36.47
2018-02-06T21:17:10.525Z,38.20
2018-02-06T21:19:38.113Z,38.17
2018-02-06T21:22:05.627Z,39.40
2018-02-06T21:24:33.092Z,37.63
2018-02-06T21:27:00.598Z,38.33
2018-02-06T21:29:28.059Z,39.17
2018-02-06T21:31:55.578Z,38.80
2018-02-06T21:34:23.854Z,38.20
2018-02-06T21:36:52.072Z,39.53
2018-02-06T21:39:19.547Z,37.70
2018-02-06T21:41:47.026Z,39.97
2018-02-06T21:44:14.542Z,39.93
2018-02-06T21:46:42.176Z,38.17
2018-02-06T21:49:09.643Z,37.77
2018-02-06T21:51:37.154Z,39.80
2018-02-06T21:54:04.670Z,38.57
2018-02-06T21:56:32.132Z,40.20
2018-02-06T21:58:59.648Z,37.10
2018-02-06T22:01:30.247Z,36.90
2018-02-06T22:03:57.814Z,36.97
2018-02-06T22:06:25.255Z,35.40
2018-02-06T22:08:52.727Z,35.90
2018-02-06T22:11:20.222Z,33.37
2018-02-06T22:13:48.601Z,34.70
2018-02-06T22:16:16.052Z,34.87
2018-02-06T22:18:43.626Z,36.90
2018-02-06T22:21:11.066Z,35.37
2018-02-06T22:23:39.766Z,37.20
2018-02-06T22:26:07.254Z,34.10
2018-02-06T22:28:34.729Z,33.00
2018-02-06T22:31:02.191Z,34.13
2018-02-06T22:33:30.259Z,32.50
2018-02-06T22:35:57.713Z,33.87
2018-02-06T22:38:25.171Z,36.63
2018-02-06T22:40:52.627Z,35.33
2018-02-06T22:43:20.103Z,33.30
2018-02-06T22:45:48.355Z,37.17
2018-02-06T22:48:15.814Z,34.77
2018-02-06T22:50:43.273Z,32.20
2018-02-06T22:53:10.735Z,32.40
2018-02-06T22:55:38.195Z,33.17
2018-02-06T22:58:05.643Z,30.20
2018-02-06T23:00:33.095Z,31.30
2018-02-06T23:03:00.569Z,31.30
2018-02-06T23:08:00.968Z,31.40
2018-02-06T23:10:28.430Z,31.00
2018-02-06T23:12:55.891Z,31.37
2018-02-06T23:15:23.359Z,30.57
2018-02-06T23:17:50.815Z,32.40
2018-02-06T23:20:18.274Z,32.60
2018-02-06T23:22:45.731Z,30.00
2018-02-06T23:25:13.188Z,31.60
2018-02-06T23:27:40.645Z,29.10
2018-02-06T23:30:08.108Z,31.10
2018-02-06T23:32:35.567Z,31.10
2018-02-06T23:35:03.029Z,32.23
2018-02-06T23:37:31.252Z,32.83
2018-02-06T23:39:58.731Z,31.90
2018-02-06T23:42:26.186Z,35.77
2018-02-06T23:44:53.644Z,35.60
2018-02-06T23:47:21.100Z,34.70
2018-02-06T23:49:48.567Z,33.57
2018-02-06T23:52:16.032Z,33.10
2018-02-06T23:54:43.478Z,33.10
2018-02-06T23:57:10.942Z,30.93
2018-02-06T23:59:38.399Z,31.80
